<?xml version="1.0" encoding="UTF-8" standalone="no" ?>
<gpx xmlns="http://www.topografix.com/GPX/1/1" xmlns:xsi="http://www.w3.org/2001/XMLSchema-instance" xsi:schemaLocation="http://www.topografix.com/GPX/1/1 http://www.topografix.com/GPX/1/1/gpx.xsd" version="1.1" creator="VisuGPX - https://www.visugpx.com">
  <metadata>
    <name>But Saint-Genis (Drôme)</name>
    <desc><![CDATA[Randonnée peu difficile à partir du Centre Préhistorique de Vassieux-en-Vercors]]></desc>
  </metadata>
  <trk>
    <name><![CDATA[But Saint-Genis-1 - PD]]></name>
    <trkseg>
      <trkpt lat="44.86524" lon="5.35679">
        <ele>1168</ele>
        <time>2020-08-26T18:51:30.37Z</time>
      </trkpt>
      <trkpt lat="44.86551" lon="5.35661">
        <ele>1165</ele>
        <time>2020-08-26T18:51:54.25Z</time>
      </trkpt>
      <trkpt lat="44.86582" lon="5.35736">
        <ele>1164</ele>
        <time>2020-08-26T18:52:43.14Z</time>
      </trkpt>
      <trkpt lat="44.86538" lon="5.35747">
        <ele>1165</ele>
        <time>2020-08-26T18:53:38.29Z</time>
      </trkpt>
      <trkpt lat="44.86359" lon="5.35694">
        <ele>1187</ele>
        <time>2020-08-26T18:57:58.22Z</time>
      </trkpt>
      <trkpt lat="44.86332" lon="5.35715">
        <ele>1192</ele>
        <time>2020-08-26T18:58:47.90Z</time>
      </trkpt>
      <trkpt lat="44.86271" lon="5.35663">
        <ele>1202</ele>
        <time>2020-08-26T19:00:38.60Z</time>
      </trkpt>
      <trkpt lat="44.86253" lon="5.35637">
        <ele>1206</ele>
        <time>2020-08-26T19:01:18.90Z</time>
      </trkpt>
      <trkpt lat="44.86176" lon="5.3559">
        <ele>1218</ele>
        <time>2020-08-26T19:03:30.65Z</time>
      </trkpt>
      <trkpt lat="44.86151" lon="5.3556">
        <ele>1223</ele>
        <time>2020-08-26T19:04:18.29Z</time>
      </trkpt>
      <trkpt lat="44.86076" lon="5.35544">
        <ele>1232</ele>
        <time>2020-08-26T19:05:59.09Z</time>
      </trkpt>
      <trkpt lat="44.86025" lon="5.35515">
        <ele>1238</ele>
        <time>2020-08-26T19:07:12.60Z</time>
      </trkpt>
      <trkpt lat="44.85971" lon="5.35478">
        <ele>1245</ele>
        <time>2020-08-26T19:08:26.50Z</time>
      </trkpt>
      <trkpt lat="44.85932" lon="5.35492">
        <ele>1248</ele>
        <time>2020-08-26T19:09:13.42Z</time>
      </trkpt>
      <trkpt lat="44.85908" lon="5.35479">
        <ele>1251</ele>
        <time>2020-08-26T19:09:43.02Z</time>
      </trkpt>
      <trkpt lat="44.85895" lon="5.35458">
        <ele>1252</ele>
        <time>2020-08-26T19:10:05.54Z</time>
      </trkpt>
      <trkpt lat="44.85887" lon="5.3543">
        <ele>1254</ele>
        <time>2020-08-26T19:10:28.88Z</time>
      </trkpt>
      <trkpt lat="44.8589" lon="5.35364">
        <ele>1258</ele>
        <time>2020-08-26T19:11:19.55Z</time>
      </trkpt>
      <trkpt lat="44.85888" lon="5.35325">
        <ele>1260</ele>
        <time>2020-08-26T19:11:49.74Z</time>
      </trkpt>
      <trkpt lat="44.85871" lon="5.35279">
        <ele>1263</ele>
        <time>2020-08-26T19:12:28.20Z</time>
      </trkpt>
      <trkpt lat="44.8587" lon="5.35265">
        <ele>1264</ele>
        <time>2020-08-26T19:12:39.67Z</time>
      </trkpt>
      <trkpt lat="44.85853" lon="5.35256">
        <ele>1265</ele>
        <time>2020-08-26T19:13:00.67Z</time>
      </trkpt>
      <trkpt lat="44.85838" lon="5.35237">
        <ele>1267</ele>
        <time>2020-08-26T19:13:24.23Z</time>
      </trkpt>
      <trkpt lat="44.85803" lon="5.35166">
        <ele>1273</ele>
        <time>2020-08-26T19:14:41.42Z</time>
      </trkpt>
      <trkpt lat="44.85771" lon="5.35071">
        <ele>1281</ele>
        <time>2020-08-26T19:16:22.90Z</time>
      </trkpt>
      <trkpt lat="44.85753" lon="5.34939">
        <ele>1293</ele>
        <time>2020-08-26T19:18:42.30Z</time>
      </trkpt>
      <trkpt lat="44.85745" lon="5.34917">
        <ele>1295</ele>
        <time>2020-08-26T19:19:07.68Z</time>
      </trkpt>
      <trkpt lat="44.85732" lon="5.34903">
        <ele>1298</ele>
        <time>2020-08-26T19:19:32.81Z</time>
      </trkpt>
      <trkpt lat="44.85728" lon="5.34858">
        <ele>1302</ele>
        <time>2020-08-26T19:20:19.14Z</time>
      </trkpt>
      <trkpt lat="44.85739" lon="5.34842">
        <ele>1304</ele>
        <time>2020-08-26T19:20:41.51Z</time>
      </trkpt>
      <trkpt lat="44.85756" lon="5.34782">
        <ele>1310</ele>
        <time>2020-08-26T19:21:46.38Z</time>
      </trkpt>
      <trkpt lat="44.85747" lon="5.347">
        <ele>1317</ele>
        <time>2020-08-26T19:23:09.12Z</time>
      </trkpt>
      <trkpt lat="44.85752" lon="5.34659">
        <ele>1321</ele>
        <time>2020-08-26T19:23:48.23Z</time>
      </trkpt>
      <trkpt lat="44.85639" lon="5.3454">
        <ele>1336</ele>
        <time>2020-08-26T19:26:41.22Z</time>
      </trkpt>
      <trkpt lat="44.85611" lon="5.34498">
        <ele>1339</ele>
        <time>2020-08-26T19:27:22.20Z</time>
      </trkpt>
      <trkpt lat="44.85536" lon="5.34431">
        <ele>1345</ele>
        <time>2020-08-26T19:28:52.76Z</time>
      </trkpt>
      <trkpt lat="44.85517" lon="5.34421">
        <ele>1347</ele>
        <time>2020-08-26T19:29:13.47Z</time>
      </trkpt>
      <trkpt lat="44.85473" lon="5.3442">
        <ele>1350</ele>
        <time>2020-08-26T19:30:03.32Z</time>
      </trkpt>
      <trkpt lat="44.85417" lon="5.34393">
        <ele>1356</ele>
        <time>2020-08-26T19:31:29.82Z</time>
      </trkpt>
      <trkpt lat="44.85308" lon="5.34325">
        <ele>1373</ele>
        <time>2020-08-26T19:34:37.24Z</time>
      </trkpt>
      <trkpt lat="44.85278" lon="5.34318">
        <ele>1378</ele>
        <time>2020-08-26T19:35:29.59Z</time>
      </trkpt>
      <trkpt lat="44.85267" lon="5.34307">
        <ele>1380</ele>
        <time>2020-08-26T19:35:52.52Z</time>
      </trkpt>
      <trkpt lat="44.85265" lon="5.34292">
        <ele>1382</ele>
        <time>2020-08-26T19:36:10.06Z</time>
      </trkpt>
      <trkpt lat="44.85136" lon="5.34163">
        <ele>1407</ele>
        <time>2020-08-26T19:40:14.48Z</time>
      </trkpt>
      <trkpt lat="44.85074" lon="5.34131">
        <ele>1414</ele>
        <time>2020-08-26T19:41:30.37Z</time>
      </trkpt>
      <trkpt lat="44.84981" lon="5.34036">
        <ele>1423</ele>
        <time>2020-08-26T19:43:22.61Z</time>
      </trkpt>
      <trkpt lat="44.84939" lon="5.33907">
        <ele>1427</ele>
        <time>2020-08-26T19:44:52.12Z</time>
      </trkpt>
      <trkpt lat="44.84858" lon="5.33789">
        <ele>1429</ele>
        <time>2020-08-26T19:46:35.15Z</time>
      </trkpt>
      <trkpt lat="44.8476" lon="5.33671">
        <ele>1434</ele>
        <time>2020-08-26T19:48:44.39Z</time>
      </trkpt>
      <trkpt lat="44.84689" lon="5.33529">
        <ele>1446</ele>
        <time>2020-08-26T19:51:19.72Z</time>
      </trkpt>
      <trkpt lat="44.8468" lon="5.33524">
        <ele>1447</ele>
        <time>2020-08-26T19:51:32.46Z</time>
      </trkpt>
      <trkpt lat="44.84543" lon="5.33522">
        <ele>1462</ele>
        <time>2020-08-26T19:54:22.33Z</time>
      </trkpt>
      <trkpt lat="44.845" lon="5.3358">
        <ele>1467</ele>
        <time>2020-08-26T19:55:35.39Z</time>
      </trkpt>
      <trkpt lat="44.84369" lon="5.33542">
        <ele>1481</ele>
        <time>2020-08-26T19:59:18.64Z</time>
      </trkpt>
      <trkpt lat="44.84183" lon="5.33545">
        <ele>1518</ele>
        <time>2020-08-26T20:05:33.69Z</time>
      </trkpt>
      <trkpt lat="44.8411" lon="5.33461">
        <ele>1539</ele>
        <time>2020-08-26T20:08:32.99Z</time>
      </trkpt>
      <trkpt lat="44.84055" lon="5.33431">
        <ele>1547</ele>
        <time>2020-08-26T20:09:41.81Z</time>
      </trkpt>
      <trkpt lat="44.83999" lon="5.3346">
        <ele>1550</ele>
        <time>2020-08-26T20:10:30.68Z</time>
      </trkpt>
      <trkpt lat="44.83986" lon="5.33451">
        <ele>1551</ele>
        <time>2020-08-26T20:10:42.95Z</time>
      </trkpt>
      <trkpt lat="44.83889" lon="5.33423">
        <ele>1548</ele>
        <time>2020-08-26T20:12:02.16Z</time>
      </trkpt>
      <trkpt lat="44.83859" lon="5.33391">
        <ele>1546</ele>
        <time>2020-08-26T20:12:32.18Z</time>
      </trkpt>
      <trkpt lat="44.83788" lon="5.33368">
        <ele>1544</ele>
        <time>2020-08-26T20:13:32.13Z</time>
      </trkpt>
      <trkpt lat="44.83715" lon="5.33331">
        <ele>1547</ele>
        <time>2020-08-26T20:14:47.84Z</time>
      </trkpt>
      <trkpt lat="44.83639" lon="5.33329">
        <ele>1553</ele>
        <time>2020-08-26T20:16:24.43Z</time>
      </trkpt>
      <trkpt lat="44.83555" lon="5.33341">
        <ele>1564</ele>
        <time>2020-08-26T20:18:33.11Z</time>
      </trkpt>
      <trkpt lat="44.83474" lon="5.33342">
        <ele>1576</ele>
        <time>2020-08-26T20:20:45.09Z</time>
      </trkpt>
      <trkpt lat="44.83439" lon="5.33335">
        <ele>1582</ele>
        <time>2020-08-26T20:21:45.91Z</time>
      </trkpt>
      <trkpt lat="44.83344" lon="5.33294">
        <ele>1598</ele>
        <time>2020-08-26T20:24:32.72Z</time>
      </trkpt>
      <trkpt lat="44.83313" lon="5.33266">
        <ele>1604</ele>
        <time>2020-08-26T20:25:37.97Z</time>
      </trkpt>
      <trkpt lat="44.83242" lon="5.33235">
        <ele>1617</ele>
        <time>2020-08-26T20:27:41.56Z</time>
      </trkpt>
      <trkpt lat="44.83236" lon="5.33221">
        <ele>1618</ele>
        <time>2020-08-26T20:28:01.14Z</time>
      </trkpt>
      <trkpt lat="44.83218" lon="5.33204">
        <ele>1621</ele>
        <time>2020-08-26T20:28:32.77Z</time>
      </trkpt>
      <trkpt lat="44.83195" lon="5.33173">
        <ele>1626</ele>
        <time>2020-08-26T20:29:16.29Z</time>
      </trkpt>
      <trkpt lat="44.83134" lon="5.33198">
        <ele>1632</ele>
        <time>2020-08-26T20:30:10.18Z</time>
      </trkpt>
      <trkpt lat="44.83022" lon="5.33146">
        <ele>1629</ele>
        <time>2020-08-26T20:31:46.30Z</time>
      </trkpt>
      <trkpt lat="44.82987" lon="5.33184">
        <ele>1622</ele>
        <time>2020-08-26T20:32:57.13Z</time>
      </trkpt>
      <trkpt lat="44.82963" lon="5.33329">
        <ele>1597</ele>
        <time>2020-08-26T20:36:11.01Z</time>
      </trkpt>
      <trkpt lat="44.82935" lon="5.33401">
        <ele>1581</ele>
        <time>2020-08-26T20:37:57.35Z</time>
      </trkpt>
      <trkpt lat="44.82937" lon="5.3343">
        <ele>1576</ele>
        <time>2020-08-26T20:38:34.47Z</time>
      </trkpt>
      <trkpt lat="44.8303" lon="5.33572">
        <ele>1543</ele>
        <time>2020-08-26T20:42:13.94Z</time>
      </trkpt>
      <trkpt lat="44.83079" lon="5.33698">
        <ele>1525</ele>
        <time>2020-08-26T20:44:27.28Z</time>
      </trkpt>
      <trkpt lat="44.83099" lon="5.33763">
        <ele>1518</ele>
        <time>2020-08-26T20:45:23.73Z</time>
      </trkpt>
      <trkpt lat="44.83113" lon="5.33832">
        <ele>1511</ele>
        <time>2020-08-26T20:46:22.97Z</time>
      </trkpt>
      <trkpt lat="44.83197" lon="5.34086">
        <ele>1483</ele>
        <time>2020-08-26T20:50:49.22Z</time>
      </trkpt>
      <trkpt lat="44.83231" lon="5.34363">
        <ele>1443</ele>
        <time>2020-08-26T20:55:44.36Z</time>
      </trkpt>
      <trkpt lat="44.83226" lon="5.34438">
        <ele>1434</ele>
        <time>2020-08-26T20:56:47.58Z</time>
      </trkpt>
      <trkpt lat="44.83229" lon="5.3451">
        <ele>1428</ele>
        <time>2020-08-26T20:57:30.40Z</time>
      </trkpt>
      <trkpt lat="44.83219" lon="5.34531">
        <ele>1427</ele>
        <time>2020-08-26T20:57:45.94Z</time>
      </trkpt>
      <trkpt lat="44.83217" lon="5.34591">
        <ele>1426</ele>
        <time>2020-08-26T20:58:20.01Z</time>
      </trkpt>
      <trkpt lat="44.83233" lon="5.34694">
        <ele>1427</ele>
        <time>2020-08-26T20:59:21.85Z</time>
      </trkpt>
      <trkpt lat="44.83232" lon="5.34802">
        <ele>1427</ele>
        <time>2020-08-26T21:00:23.20Z</time>
      </trkpt>
      <trkpt lat="44.83226" lon="5.34837">
        <ele>1426</ele>
        <time>2020-08-26T21:00:48.69Z</time>
      </trkpt>
      <trkpt lat="44.83192" lon="5.34948">
        <ele>1414</ele>
        <time>2020-08-26T21:02:48.19Z</time>
      </trkpt>
      <trkpt lat="44.8317" lon="5.35043">
        <ele>1398</ele>
        <time>2020-08-26T21:04:53.49Z</time>
      </trkpt>
      <trkpt lat="44.83145" lon="5.35111">
        <ele>1384</ele>
        <time>2020-08-26T21:06:34.07Z</time>
      </trkpt>
      <trkpt lat="44.83122" lon="5.35142">
        <ele>1376</ele>
        <time>2020-08-26T21:07:27.22Z</time>
      </trkpt>
      <trkpt lat="44.83114" lon="5.35165">
        <ele>1372</ele>
        <time>2020-08-26T21:07:56.84Z</time>
      </trkpt>
      <trkpt lat="44.8309" lon="5.35181">
        <ele>1367</ele>
        <time>2020-08-26T21:08:30.60Z</time>
      </trkpt>
      <trkpt lat="44.83053" lon="5.35228">
        <ele>1360</ele>
        <time>2020-08-26T21:09:18.63Z</time>
      </trkpt>
      <trkpt lat="44.8304" lon="5.35281">
        <ele>1357</ele>
        <time>2020-08-26T21:09:51.31Z</time>
      </trkpt>
      <trkpt lat="44.83038" lon="5.35319">
        <ele>1356</ele>
        <time>2020-08-26T21:10:13.13Z</time>
      </trkpt>
      <trkpt lat="44.83031" lon="5.35361">
        <ele>1355</ele>
        <time>2020-08-26T21:10:37.61Z</time>
      </trkpt>
      <trkpt lat="44.83032" lon="5.35459">
        <ele>1354</ele>
        <time>2020-08-26T21:11:33.18Z</time>
      </trkpt>
      <trkpt lat="44.83024" lon="5.35518">
        <ele>1354</ele>
        <time>2020-08-26T21:12:07.40Z</time>
      </trkpt>
      <trkpt lat="44.82987" lon="5.35589">
        <ele>1351</ele>
        <time>2020-08-26T21:13:00.22Z</time>
      </trkpt>
      <trkpt lat="44.8297" lon="5.3561">
        <ele>1349</ele>
        <time>2020-08-26T21:13:18.59Z</time>
      </trkpt>
      <trkpt lat="44.82949" lon="5.35687">
        <ele>1344</ele>
        <time>2020-08-26T21:14:12.21Z</time>
      </trkpt>
      <trkpt lat="44.82928" lon="5.35706">
        <ele>1341</ele>
        <time>2020-08-26T21:14:37Z</time>
      </trkpt>
      <trkpt lat="44.82888" lon="5.35773">
        <ele>1334</ele>
        <time>2020-08-26T21:15:36.62Z</time>
      </trkpt>
      <trkpt lat="44.82875" lon="5.35811">
        <ele>1331</ele>
        <time>2020-08-26T21:16:03.83Z</time>
      </trkpt>
      <trkpt lat="44.82875" lon="5.35841">
        <ele>1329</ele>
        <time>2020-08-26T21:16:23.70Z</time>
      </trkpt>
      <trkpt lat="44.82901" lon="5.35827">
        <ele>1326</ele>
        <time>2020-08-26T21:16:47.52Z</time>
      </trkpt>
      <trkpt lat="44.82964" lon="5.35856">
        <ele>1322</ele>
        <time>2020-08-26T21:17:40.95Z</time>
      </trkpt>
      <trkpt lat="44.82991" lon="5.35881">
        <ele>1320</ele>
        <time>2020-08-26T21:18:06.83Z</time>
      </trkpt>
      <trkpt lat="44.83008" lon="5.3591">
        <ele>1319</ele>
        <time>2020-08-26T21:18:28.20Z</time>
      </trkpt>
      <trkpt lat="44.83024" lon="5.35918">
        <ele>1318</ele>
        <time>2020-08-26T21:18:41.69Z</time>
      </trkpt>
      <trkpt lat="44.8309" lon="5.35975">
        <ele>1315</ele>
        <time>2020-08-26T21:19:44.14Z</time>
      </trkpt>
      <trkpt lat="44.8313" lon="5.36">
        <ele>1313</ele>
        <time>2020-08-26T21:20:18.77Z</time>
      </trkpt>
      <trkpt lat="44.83216" lon="5.36031">
        <ele>1308</ele>
        <time>2020-08-26T21:21:32.13Z</time>
      </trkpt>
      <trkpt lat="44.8328" lon="5.36011">
        <ele>1303</ele>
        <time>2020-08-26T21:22:27.35Z</time>
      </trkpt>
      <trkpt lat="44.83358" lon="5.35963">
        <ele>1297</ele>
        <time>2020-08-26T21:23:38.66Z</time>
      </trkpt>
      <trkpt lat="44.83427" lon="5.35886">
        <ele>1291</ele>
        <time>2020-08-26T21:24:52.68Z</time>
      </trkpt>
      <trkpt lat="44.83456" lon="5.35821">
        <ele>1287</ele>
        <time>2020-08-26T21:25:36.81Z</time>
      </trkpt>
      <trkpt lat="44.83538" lon="5.35726">
        <ele>1282</ele>
        <time>2020-08-26T21:27:01.19Z</time>
      </trkpt>
      <trkpt lat="44.83559" lon="5.35711">
        <ele>1280</ele>
        <time>2020-08-26T21:27:20.83Z</time>
      </trkpt>
      <trkpt lat="44.83591" lon="5.35702">
        <ele>1278</ele>
        <time>2020-08-26T21:27:47.96Z</time>
      </trkpt>
      <trkpt lat="44.83625" lon="5.35702">
        <ele>1276</ele>
        <time>2020-08-26T21:28:15.29Z</time>
      </trkpt>
      <trkpt lat="44.83644" lon="5.35711">
        <ele>1275</ele>
        <time>2020-08-26T21:28:31.06Z</time>
      </trkpt>
      <trkpt lat="44.83678" lon="5.35738">
        <ele>1273</ele>
        <time>2020-08-26T21:29:02.03Z</time>
      </trkpt>
      <trkpt lat="44.83871" lon="5.35927">
        <ele>1260</ele>
        <time>2020-08-26T21:32:10.47Z</time>
      </trkpt>
      <trkpt lat="44.83904" lon="5.35973">
        <ele>1258</ele>
        <time>2020-08-26T21:32:47.80Z</time>
      </trkpt>
      <trkpt lat="44.83935" lon="5.36037">
        <ele>1255</ele>
        <time>2020-08-26T21:33:32.01Z</time>
      </trkpt>
      <trkpt lat="44.84029" lon="5.36159">
        <ele>1248</ele>
        <time>2020-08-26T21:35:13.87Z</time>
      </trkpt>
      <trkpt lat="44.84125" lon="5.36297">
        <ele>1241</ele>
        <time>2020-08-26T21:37:03.83Z</time>
      </trkpt>
      <trkpt lat="44.84186" lon="5.36369">
        <ele>1236</ele>
        <time>2020-08-26T21:38:07.76Z</time>
      </trkpt>
      <trkpt lat="44.84376" lon="5.36631">
        <ele>1227</ele>
        <time>2020-08-26T21:41:40.70Z</time>
      </trkpt>
      <trkpt lat="44.84401" lon="5.36656">
        <ele>1225</ele>
        <time>2020-08-26T21:42:05.13Z</time>
      </trkpt>
      <trkpt lat="44.8446" lon="5.36744">
        <ele>1222</ele>
        <time>2020-08-26T21:43:13.86Z</time>
      </trkpt>
      <trkpt lat="44.84522" lon="5.36797">
        <ele>1219</ele>
        <time>2020-08-26T21:44:11.90Z</time>
      </trkpt>
      <trkpt lat="44.84599" lon="5.36896">
        <ele>1215</ele>
        <time>2020-08-26T21:45:35.75Z</time>
      </trkpt>
      <trkpt lat="44.84605" lon="5.36916">
        <ele>1214</ele>
        <time>2020-08-26T21:45:47.77Z</time>
      </trkpt>
      <trkpt lat="44.84604" lon="5.36957">
        <ele>1214</ele>
        <time>2020-08-26T21:46:11.21Z</time>
      </trkpt>
      <trkpt lat="44.84661" lon="5.36903">
        <ele>1213</ele>
        <time>2020-08-26T21:47:06.39Z</time>
      </trkpt>
      <trkpt lat="44.84692" lon="5.36894">
        <ele>1212</ele>
        <time>2020-08-26T21:47:31.81Z</time>
      </trkpt>
      <trkpt lat="44.84731" lon="5.36894">
        <ele>1212</ele>
        <time>2020-08-26T21:48:02.69Z</time>
      </trkpt>
      <trkpt lat="44.84774" lon="5.36885">
        <ele>1212</ele>
        <time>2020-08-26T21:48:37.45Z</time>
      </trkpt>
      <trkpt lat="44.8482" lon="5.36868">
        <ele>1212</ele>
        <time>2020-08-26T21:49:15.69Z</time>
      </trkpt>
      <trkpt lat="44.84888" lon="5.36825">
        <ele>1212</ele>
        <time>2020-08-26T21:50:17.07Z</time>
      </trkpt>
      <trkpt lat="44.84956" lon="5.36786">
        <ele>1213</ele>
        <time>2020-08-26T21:51:16.53Z</time>
      </trkpt>
      <trkpt lat="44.85134" lon="5.36746">
        <ele>1213</ele>
        <time>2020-08-26T21:53:43.58Z</time>
      </trkpt>
      <trkpt lat="44.85293" lon="5.36688">
        <ele>1215</ele>
        <time>2020-08-26T21:56:07.12Z</time>
      </trkpt>
      <trkpt lat="44.85373" lon="5.36637">
        <ele>1219</ele>
        <time>2020-08-26T21:57:28.23Z</time>
      </trkpt>
      <trkpt lat="44.85387" lon="5.36598">
        <ele>1220</ele>
        <time>2020-08-26T21:57:57.85Z</time>
      </trkpt>
      <trkpt lat="44.85401" lon="5.36498">
        <ele>1224</ele>
        <time>2020-08-26T21:59:06.65Z</time>
      </trkpt>
      <trkpt lat="44.85425" lon="5.36353">
        <ele>1229</ele>
        <time>2020-08-26T22:00:39.11Z</time>
      </trkpt>
      <trkpt lat="44.85422" lon="5.36215">
        <ele>1229</ele>
        <time>2020-08-26T22:01:57.82Z</time>
      </trkpt>
      <trkpt lat="44.85425" lon="5.36126">
        <ele>1228</ele>
        <time>2020-08-26T22:02:48.82Z</time>
      </trkpt>
      <trkpt lat="44.85437" lon="5.36071">
        <ele>1226</ele>
        <time>2020-08-26T22:03:21.01Z</time>
      </trkpt>
      <trkpt lat="44.85448" lon="5.36048">
        <ele>1226</ele>
        <time>2020-08-26T22:03:37.21Z</time>
      </trkpt>
      <trkpt lat="44.85459" lon="5.36002">
        <ele>1225</ele>
        <time>2020-08-26T22:04:04.97Z</time>
      </trkpt>
      <trkpt lat="44.85447" lon="5.35897">
        <ele>1226</ele>
        <time>2020-08-26T22:05:14.32Z</time>
      </trkpt>
      <trkpt lat="44.85408" lon="5.35728">
        <ele>1233</ele>
        <time>2020-08-26T22:07:18.26Z</time>
      </trkpt>
      <trkpt lat="44.85404" lon="5.35672">
        <ele>1236</ele>
        <time>2020-08-26T22:07:58.64Z</time>
      </trkpt>
      <trkpt lat="44.85409" lon="5.35589">
        <ele>1240</ele>
        <time>2020-08-26T22:08:56.28Z</time>
      </trkpt>
      <trkpt lat="44.85396" lon="5.35504">
        <ele>1243</ele>
        <time>2020-08-26T22:09:53.70Z</time>
      </trkpt>
      <trkpt lat="44.85376" lon="5.35428">
        <ele>1245</ele>
        <time>2020-08-26T22:10:45.92Z</time>
      </trkpt>
      <trkpt lat="44.85361" lon="5.35397">
        <ele>1246</ele>
        <time>2020-08-26T22:11:08.38Z</time>
      </trkpt>
      <trkpt lat="44.85326" lon="5.35354">
        <ele>1246</ele>
        <time>2020-08-26T22:11:46.73Z</time>
      </trkpt>
      <trkpt lat="44.85333" lon="5.35342">
        <ele>1246</ele>
        <time>2020-08-26T22:11:55.72Z</time>
      </trkpt>
      <trkpt lat="44.85341" lon="5.35339">
        <ele>1246</ele>
        <time>2020-08-26T22:12:02.71Z</time>
      </trkpt>
      <trkpt lat="44.8538" lon="5.35355">
        <ele>1247</ele>
        <time>2020-08-26T22:12:36.11Z</time>
      </trkpt>
      <trkpt lat="44.85439" lon="5.35371">
        <ele>1247</ele>
        <time>2020-08-26T22:13:23.91Z</time>
      </trkpt>
      <trkpt lat="44.8546" lon="5.35391">
        <ele>1247</ele>
        <time>2020-08-26T22:13:44.56Z</time>
      </trkpt>
      <trkpt lat="44.85515" lon="5.35429">
        <ele>1246</ele>
        <time>2020-08-26T22:14:33.48Z</time>
      </trkpt>
      <trkpt lat="44.85584" lon="5.35458">
        <ele>1247</ele>
        <time>2020-08-26T22:15:33.01Z</time>
      </trkpt>
      <trkpt lat="44.85615" lon="5.35424">
        <ele>1247</ele>
        <time>2020-08-26T22:16:04.80Z</time>
      </trkpt>
      <trkpt lat="44.85646" lon="5.35409">
        <ele>1247</ele>
        <time>2020-08-26T22:16:31.72Z</time>
      </trkpt>
      <trkpt lat="44.85684" lon="5.35409">
        <ele>1248</ele>
        <time>2020-08-26T22:17:06.16Z</time>
      </trkpt>
      <trkpt lat="44.85735" lon="5.3542">
        <ele>1250</ele>
        <time>2020-08-26T22:17:50.18Z</time>
      </trkpt>
      <trkpt lat="44.85845" lon="5.35457">
        <ele>1251</ele>
        <time>2020-08-26T22:19:20.64Z</time>
      </trkpt>
      <trkpt lat="44.85886" lon="5.35502">
        <ele>1249</ele>
        <time>2020-08-26T22:20:02.77Z</time>
      </trkpt>
      <trkpt lat="44.85899" lon="5.3551">
        <ele>1248</ele>
        <time>2020-08-26T22:20:14.35Z</time>
      </trkpt>
      <trkpt lat="44.85941" lon="5.35562">
        <ele>1244</ele>
        <time>2020-08-26T22:21:03.09Z</time>
      </trkpt>
      <trkpt lat="44.85966" lon="5.35577">
        <ele>1241</ele>
        <time>2020-08-26T22:21:31.92Z</time>
      </trkpt>
      <trkpt lat="44.85993" lon="5.35583">
        <ele>1237</ele>
        <time>2020-08-26T22:22:05.16Z</time>
      </trkpt>
      <trkpt lat="44.86037" lon="5.3561">
        <ele>1230</ele>
        <time>2020-08-26T22:23:03.07Z</time>
      </trkpt>
      <trkpt lat="44.86107" lon="5.35633">
        <ele>1219</ele>
        <time>2020-08-26T22:24:24.85Z</time>
      </trkpt>
      <trkpt lat="44.86117" lon="5.35658">
        <ele>1216</ele>
        <time>2020-08-26T22:24:48.23Z</time>
      </trkpt>
      <trkpt lat="44.86211" lon="5.35681">
        <ele>1204</ele>
        <time>2020-08-26T22:26:26.30Z</time>
      </trkpt>
      <trkpt lat="44.86256" lon="5.35685">
        <ele>1199</ele>
        <time>2020-08-26T22:27:07.39Z</time>
      </trkpt>
      <trkpt lat="44.86267" lon="5.35706">
        <ele>1198</ele>
        <time>2020-08-26T22:27:23.18Z</time>
      </trkpt>
      <trkpt lat="44.86299" lon="5.35724">
        <ele>1195</ele>
        <time>2020-08-26T22:27:54.60Z</time>
      </trkpt>
      <trkpt lat="44.86332" lon="5.35715">
        <ele>1192</ele>
        <time>2020-08-26T22:28:24.17Z</time>
      </trkpt>
      <trkpt lat="44.86359" lon="5.35694">
        <ele>1189</ele>
        <time>2020-08-26T22:28:56.83Z</time>
      </trkpt>
      <trkpt lat="44.86538" lon="5.35747">
        <ele>1166</ele>
        <time>2020-08-26T22:31:58.05Z</time>
      </trkpt>
      <trkpt lat="44.86582" lon="5.35736">
        <ele>1163</ele>
        <time>2020-08-26T22:32:33.63Z</time>
      </trkpt>
      <trkpt lat="44.86551" lon="5.35661">
        <ele>1164</ele>
        <time>2020-08-26T22:33:35Z</time>
      </trkpt>
      <trkpt lat="44.86511" lon="5.35679">
        <ele>1170</ele>
        <time>2020-08-26T22:34:39.86Z</time>
      </trkpt>
    </trkseg>
  </trk>
</gpx>